MUCC Airport Information

Runway Information
Runway 08 Length 9842 ft width 148 ft
Elevation 10 ft Threshold 0 ft Heading 71
Runway 26 Length 9842 ft Width 148 ft
Elevation 13 ft Threshold 0 ft Heading 251
Airport Frequencies
Type A/G Name RDO Frequency 340.7 MHZ
Type TWR Name APP/TWR Frequency 118.8 MHZ
Airport Navaids
Type NDB Name Jardines Del Rey Frequency 382 KHZ
Type VOR-DME Name Jardines Del Rey Frequency 117800 KHZ
Airport Weather Information & NOTAM
ADDS - METARS form results

(1310 UTC 24 January 2019)
Data provider http://aviationweather.gov/metar/data/
 
METAR text: MUCC 241251Z VRB02KT 9000 FEW020 23/21 Q1018
Conditions at: MUCC (CANAGUA , CU) observed 1251 UTC 24 January 2019
Temperature: 23.0°C (73°F)
Dewpoint: 21.0°C (70°F) [RH = 89%]
Pressure (altimeter): 30.06 inches Hg (1018.0 mb)
Winds: variable direction winds at 2 MPH (2 knots; 1.0 m/s)
Visibility: 6 miles ( 9 km)
Ceiling: at least 12,000 feet AGL
Clouds: few clouds at 2000 feet AGL
Weather: no significant weather observed at this time

Forecast for: MUCC (CANAGUA , CU)
Text: MUCC 241100Z 2412/2512 12008KT 9000 FEW020
Forecast period: 1200 UTC 24 January 2019 to 1200 UTC 25 January 2019
Forecast type: FROM: standard forecast or significant change
Winds: from the ESE (120 degrees) at 9 MPH (8 knots; 4.1 m/s)
Visibility: 6 miles (9 km)
Ceiling: at least 12,000 feet AGL
Clouds: few clouds at 2000 feet AGL
Weather: no significant weather forecast for this period